createdAt,value
2018-09-07T00:00:49.568Z,26.27
2018-09-07T00:01:49.612Z,26.27
2018-09-07T00:02:49.692Z,26.19
2018-09-07T00:03:49.721Z,26.31
2018-09-07T00:04:50.070Z,26.36
2018-09-07T00:05:49.741Z,26.29
2018-09-07T00:06:49.817Z,26.32
2018-09-07T00:07:49.804Z,26.34
2018-09-07T00:08:49.847Z,26.24
2018-09-07T00:09:49.873Z,26.31
2018-09-07T00:10:49.901Z,26.32
2018-09-07T00:11:50.234Z,26.20
2018-09-07T00:12:49.965Z,26.20
2018-09-07T00:13:50.056Z,26.23
2018-09-07T00:14:50.082Z,26.32
2018-09-07T00:15:50.068Z,26.28
2018-09-07T00:16:50.100Z,26.31
2018-09-07T00:17:50.136Z,26.31
2018-09-07T00:18:50.466Z,26.27
2018-09-07T00:19:50.197Z,26.31
2018-09-07T00:20:50.278Z,26.19
2018-09-07T00:21:50.263Z,26.29
2018-09-07T00:22:50.353Z,26.29
2018-09-07T00:23:50.328Z,26.28
2018-09-07T00:24:50.412Z,26.28
2018-09-07T00:25:50.698Z,26.24
2018-09-07T00:26:50.479Z,26.20
2018-09-07T00:27:50.462Z,26.29
2018-09-07T00:28:50.544Z,26.29
2018-09-07T00:29:50.531Z,26.24
2018-09-07T00:30:50.609Z,26.31
2018-09-07T00:31:50.595Z,26.29
2018-09-07T00:32:50.926Z,26.28
2018-09-07T00:33:50.711Z,26.31
2018-09-07T00:34:50.742Z,26.35
2018-09-07T00:35:50.729Z,26.31
2018-09-07T00:36:50.785Z,26.21
2018-09-07T00:37:50.791Z,26.27
2018-09-07T00:38:51.245Z,26.27
2018-09-07T00:39:50.859Z,26.21
2018-09-07T00:40:50.890Z,26.24
2018-09-07T00:41:50.922Z,26.28
2018-09-07T00:42:50.965Z,26.27
2018-09-07T00:43:51.039Z,26.28
2018-09-07T00:44:51.320Z,26.27
2018-09-07T00:45:51.109Z,26.34
2018-09-07T00:46:51.144Z,26.32
2018-09-07T00:47:51.172Z,26.32
2018-09-07T00:48:51.204Z,26.35
2018-09-07T00:49:51.307Z,26.31
2018-09-07T00:50:51.589Z,26.27
2018-09-07T00:51:51.333Z,26.17
2018-09-07T00:52:51.289Z,26.27
2018-09-07T00:53:51.376Z,26.29
2018-09-07T00:54:51.402Z,26.29
2018-09-07T00:55:51.389Z,26.23
2018-09-07T00:56:51.423Z,26.20
2018-09-07T00:57:51.748Z,26.29
2018-09-07T00:58:51.531Z,26.21
2018-09-07T00:59:51.865Z,26.21
2018-09-07T01:00:51.552Z,26.31
2018-09-07T01:01:51.589Z,26.24
2018-09-07T01:02:51.617Z,26.20
2018-09-07T01:03:51.724Z,26.13
2018-09-07T01:04:51.979Z,26.00
2018-09-07T01:05:51.713Z,26.06
2018-09-07T01:06:51.795Z,25.91
2018-09-07T01:07:51.782Z,25.93
2018-09-07T01:08:51.864Z,25.78
2018-09-07T01:09:51.845Z,25.75
2018-09-07T01:10:51.936Z,25.76
2018-09-07T01:11:52.210Z,25.69
2018-09-07T01:12:51.941Z,25.63
2018-09-07T01:13:52.031Z,25.56
2018-09-07T01:14:52.063Z,25.64
2018-09-07T01:15:52.040Z,25.64
2018-09-07T01:16:52.073Z,25.64
2018-09-07T01:17:52.157Z,25.67
2018-09-07T01:18:52.492Z,25.60
2018-09-07T01:20:52.206Z,25.64
2018-09-07T01:21:52.239Z,25.64
2018-09-07T01:22:52.330Z,25.75
2018-09-07T01:23:52.304Z,25.64
2018-09-07T01:24:52.351Z,25.71
2018-09-07T01:25:52.670Z,25.72
2018-09-07T01:26:52.455Z,25.76
2018-09-07T01:27:52.484Z,25.79
2018-09-07T01:28:52.467Z,25.69
2018-09-07T01:29:52.510Z,25.75
2018-09-07T01:30:52.534Z,25.64
2018-09-07T01:31:52.564Z,25.67
2018-09-07T01:32:52.903Z,25.66
2018-09-07T01:33:52.634Z,25.64
2018-09-07T01:34:52.666Z,25.67
2018-09-07T01:35:52.699Z,25.66
2018-09-07T01:36:52.754Z,25.75
2018-09-07T01:37:52.771Z,25.71
2018-09-07T01:38:52.801Z,25.74
2018-09-07T01:39:53.136Z,25.67
2018-09-07T01:40:52.860Z,25.79
2018-09-07T01:41:52.894Z,25.75
2018-09-07T01:42:52.931Z,25.76
2018-09-07T01:43:52.961Z,25.67
2018-09-07T01:44:52.991Z,25.64
2018-09-07T01:45:53.081Z,25.63
2018-09-07T01:46:53.358Z,25.71
2018-09-07T01:47:53.092Z,25.72
2018-09-07T01:48:53.122Z,25.69
2018-09-07T01:49:53.156Z,25.56
2018-09-07T01:50:53.201Z,25.66
2018-09-07T01:51:53.274Z,25.57
2018-09-07T01:52:53.260Z,25.61
2018-09-07T01:53:53.643Z,25.57
2018-09-07T01:54:53.321Z,25.67
2018-09-07T01:55:53.414Z,25.67
2018-09-07T01:56:53.385Z,25.63
2018-09-07T01:57:53.420Z,25.66
2018-09-07T01:58:53.454Z,25.61
2018-09-07T01:59:53.486Z,25.64
2018-09-07T02:00:53.820Z,25.64
2018-09-07T02:01:53.552Z,25.64
2018-09-07T02:02:53.583Z,25.64
2018-09-07T02:03:53.619Z,25.60
2018-09-07T02:04:53.652Z,25.63
2018-09-07T02:05:53.732Z,25.57
2018-09-07T02:06:53.718Z,25.57
2018-09-07T02:07:54.063Z,25.63
2018-09-07T02:08:53.829Z,25.60
2018-09-07T02:09:53.861Z,25.64
2018-09-07T02:10:53.846Z,25.63
2018-09-07T02:12:53.911Z,25.67
2018-09-07T02:13:53.944Z,25.60
2018-09-07T02:14:54.278Z,25.57
2018-09-07T02:15:54.065Z,25.64
2018-09-07T02:16:54.091Z,25.53
2018-09-07T02:17:54.075Z,25.66
2018-09-07T02:18:54.110Z,25.53
2018-09-07T02:19:54.140Z,25.64
2018-09-07T02:20:54.229Z,25.57
2018-09-07T02:21:54.508Z,25.57
2018-09-07T02:22:54.238Z,25.63
2018-09-07T02:23:54.268Z,25.56
2018-09-07T02:24:54.302Z,25.56
2018-09-07T02:28:54.489Z,25.54
2018-09-07T02:29:54.769Z,25.57
2018-09-07T02:30:54.502Z,25.51
2018-09-07T02:31:54.534Z,25.54
2018-09-07T02:32:54.565Z,25.51
2018-09-07T02:33:54.651Z,25.59
2018-09-07T02:34:54.679Z,25.59
2018-09-07T02:35:54.712Z,25.59
2018-09-07T02:36:54.995Z,25.54
2018-09-07T02:37:54.734Z,25.57
2018-09-07T02:38:54.829Z,25.54
2018-09-07T02:39:54.800Z,25.56
2018-09-07T02:40:54.901Z,25.53
2018-09-07T02:41:54.858Z,25.54
2018-09-07T02:42:54.893Z,25.51
2018-09-07T02:43:55.226Z,25.53
2018-09-07T02:44:54.967Z,25.49
2018-09-07T02:45:55.040Z,25.48
2018-09-07T02:46:55.073Z,25.53
2018-09-07T02:47:55.054Z,25.49
2018-09-07T02:48:55.089Z,25.48
2018-09-07T02:49:55.421Z,25.51
2018-09-07T02:50:55.159Z,25.53
2018-09-07T02:51:55.234Z,25.57
2018-09-07T02:52:55.219Z,25.54
2018-09-07T02:53:55.251Z,25.46
2018-09-07T02:54:55.339Z,25.46
2018-09-07T02:55:55.620Z,25.44
2018-09-07T02:56:55.400Z,25.54
2018-09-07T02:57:55.383Z,25.38
2018-09-07T02:58:55.419Z,25.44
2018-09-07T02:59:55.446Z,25.46
2018-09-07T03:01:55.562Z,25.44
2018-09-07T03:02:55.845Z,25.35
2018-09-07T03:03:55.625Z,25.35
2018-09-07T03:04:55.613Z,25.48
2018-09-07T03:05:55.643Z,25.44
2018-09-07T03:07:55.708Z,25.45
2018-09-07T03:08:56.043Z,25.41
2018-09-07T03:09:55.770Z,25.45
2018-09-07T03:10:55.855Z,25.39
2018-09-07T03:11:55.835Z,25.31
2018-09-07T03:12:55.867Z,25.35
2018-09-07T03:13:55.952Z,25.36
2018-09-07T03:14:55.940Z,25.35
2018-09-07T03:15:56.267Z,25.31
2018-09-07T03:16:55.998Z,25.35
2018-09-07T03:17:56.035Z,25.34
2018-09-07T03:18:56.065Z,25.38
2018-09-07T03:19:56.097Z,25.35
2018-09-07T03:20:56.128Z,25.44
2018-09-07T03:21:56.161Z,25.39
2018-09-07T03:22:56.495Z,25.38
2018-09-07T03:23:56.280Z,25.30
2018-09-07T03:24:56.258Z,25.34
2018-09-07T03:25:56.291Z,25.26
2018-09-07T03:26:56.323Z,25.20
2018-09-07T03:27:56.408Z,25.34
2018-09-07T03:28:56.441Z,25.31
2018-09-07T03:30:56.761Z,25.31
2018-09-07T03:31:56.492Z,25.29
2018-09-07T03:32:56.518Z,25.24
2018-09-07T03:33:56.601Z,25.31
2018-09-07T03:34:56.585Z,25.24
2018-09-07T03:35:56.667Z,25.26
2018-09-07T03:36:56.703Z,25.29
2018-09-07T03:37:56.983Z,25.23
2018-09-07T03:38:56.713Z,25.23
2018-09-07T03:39:56.746Z,25.22
2018-09-07T03:40:56.790Z,25.23
2018-09-07T03:41:56.819Z,25.20
2018-09-07T03:42:56.844Z,25.23
2018-09-07T03:43:56.925Z,25.24
2018-09-07T03:44:57.211Z,25.20
2018-09-07T03:45:56.948Z,25.26
2018-09-07T03:46:56.982Z,25.23
2018-09-07T03:47:57.010Z,25.24
2018-09-07T03:48:57.037Z,25.26
2018-09-07T03:50:57.106Z,25.22
2018-09-07T03:51:57.435Z,25.17
2018-09-07T03:52:57.166Z,25.23
2018-09-07T03:53:57.200Z,25.20
2018-09-07T03:54:57.248Z,25.11
2018-09-07T03:55:57.318Z,25.14
2018-09-07T03:56:57.350Z,25.17
2018-09-07T03:57:57.329Z,25.11
2018-09-07T03:58:57.662Z,25.09
2018-09-07T03:59:57.447Z,25.17
2018-09-07T04:00:57.503Z,25.09
2018-09-07T04:01:57.464Z,25.11
2018-09-07T04:02:57.561Z,25.17
2018-09-07T04:03:57.585Z,25.11
2018-09-07T04:04:57.556Z,25.16
2018-09-07T04:05:57.890Z,25.14
2018-09-07T04:06:57.621Z,25.08
2018-09-07T04:07:57.655Z,25.05
2018-09-07T04:08:57.737Z,25.08
2018-09-07T04:09:57.723Z,25.05
2018-09-07T04:10:57.756Z,24.99
2018-09-07T04:11:57.805Z,25.01
2018-09-07T04:12:57.866Z,25.02
2018-09-07T04:13:57.848Z,25.01
2018-09-07T04:14:57.880Z,24.99
2018-09-07T04:16:57.994Z,24.89
2018-09-07T04:17:57.981Z,24.89
2018-09-07T04:18:58.325Z,24.86
2018-09-07T04:19:58.043Z,24.87
2018-09-07T04:20:58.125Z,24.84
2018-09-07T04:21:58.120Z,24.83
2018-09-07T04:22:58.153Z,24.74
2018-09-07T04:23:58.181Z,24.71
2018-09-07T04:24:58.264Z,24.70
2018-09-07T04:25:58.537Z,24.75
2018-09-07T04:26:58.269Z,24.70
2018-09-07T04:27:58.355Z,24.68
2018-09-07T04:28:58.339Z,24.60
2018-09-07T04:29:58.365Z,24.79
2018-09-07T04:30:58.402Z,24.71
2018-09-07T04:31:58.486Z,24.63
2018-09-07T04:32:58.813Z,24.63
2018-09-07T04:33:58.494Z,24.71
2018-09-07T04:34:58.527Z,24.63
2018-09-07T04:35:58.609Z,24.61
2018-09-07T04:36:58.642Z,24.60
2018-09-07T04:37:58.673Z,24.56
2018-09-07T04:38:58.956Z,24.66
2018-09-07T04:39:58.692Z,24.60
2018-09-07T04:40:58.773Z,24.61
2018-09-07T04:41:58.755Z,24.61
2018-09-07T04:42:58.784Z,24.56
2018-09-07T04:43:58.817Z,24.67
2018-09-07T04:44:59.149Z,24.60
2018-09-07T04:45:58.938Z,24.63
2018-09-07T04:46:58.914Z,24.63
2018-09-07T04:47:58.944Z,24.61
2018-09-07T04:48:59.032Z,24.61
2018-09-07T04:49:59.037Z,24.68
2018-09-07T04:50:59.342Z,24.60
2018-09-07T04:51:59.077Z,24.64
2018-09-07T04:52:59.110Z,24.59
2018-09-07T04:53:59.214Z,24.56
2018-09-07T04:54:59.172Z,24.61
2018-09-07T04:55:59.205Z,24.55
2018-09-07T04:56:59.241Z,24.53
2018-09-07T04:57:59.574Z,24.60
2018-09-07T04:58:59.302Z,24.60
2018-09-07T04:59:59.335Z,24.59
2018-09-07T05:00:59.422Z,24.55
2018-09-07T05:01:59.461Z,24.64
2018-09-07T05:02:59.487Z,24.60
2018-09-07T05:03:59.463Z,24.60
2018-09-07T05:04:59.793Z,24.66
2018-09-07T05:05:59.527Z,24.56
2018-09-07T05:06:59.557Z,24.59
2018-09-07T05:07:59.640Z,24.59
2018-09-07T05:08:59.621Z,24.60
2018-09-07T05:09:59.704Z,24.60
2018-09-07T05:10:59.702Z,24.70
2018-09-07T05:12:00.035Z,24.64
2018-09-07T05:12:59.808Z,24.63
2018-09-07T05:13:59.791Z,24.70
2018-09-07T05:14:59.814Z,24.63
2018-09-07T05:15:59.898Z,24.66
2018-09-07T05:16:59.880Z,24.71
2018-09-07T05:17:59.913Z,24.74
2018-09-07T05:19:00.249Z,24.63
2018-09-07T05:20:00.024Z,24.70
2018-09-07T05:21:00.063Z,24.71
2018-09-07T05:22:00.159Z,24.70
2018-09-07T05:24:00.108Z,24.70
2018-09-07T05:25:00.140Z,24.77
2018-09-07T05:26:00.479Z,24.71
2018-09-07T05:27:00.206Z,24.75
2018-09-07T05:28:00.233Z,24.70
2018-09-07T05:29:00.263Z,24.71
2018-09-07T05:30:00.355Z,24.74
2018-09-07T05:31:00.341Z,24.75
2018-09-07T05:32:00.360Z,24.79
2018-09-07T05:33:00.394Z,24.75
2018-09-07T05:34:00.477Z,24.71
2018-09-07T05:35:00.457Z,24.70
2018-09-07T05:36:00.565Z,24.84
2018-09-07T05:37:00.523Z,24.83
2018-09-07T05:38:00.552Z,24.77
2018-09-07T05:39:00.907Z,24.74
2018-09-07T05:40:00.618Z,24.75
2018-09-07T05:41:00.649Z,24.80
2018-09-07T05:42:00.685Z,24.71
2018-09-07T05:43:00.717Z,24.80
2018-09-07T05:44:00.795Z,24.74
2018-09-07T05:45:00.780Z,24.79
2018-09-07T05:46:01.115Z,24.80
2018-09-07T05:47:00.841Z,24.83
2018-09-07T05:48:00.942Z,24.86
2018-09-07T05:49:00.966Z,24.86
2018-09-07T05:50:00.941Z,24.84
2018-09-07T05:51:00.980Z,24.89
2018-09-07T05:52:01.054Z,24.89
2018-09-07T05:53:01.396Z,24.89
2018-09-07T05:54:01.069Z,24.94
2018-09-07T05:55:01.103Z,24.98
2018-09-07T05:56:01.182Z,24.92
2018-09-07T05:57:01.223Z,25.07
2018-09-07T05:58:01.264Z,25.04
2018-09-07T05:59:01.235Z,25.07
2018-09-07T06:00:01.269Z,25.14
2018-09-07T06:01:01.346Z,25.09
2018-09-07T06:02:01.323Z,25.08
2018-09-07T06:03:01.359Z,25.12
2018-09-07T06:04:01.461Z,25.11
2018-09-07T06:05:01.722Z,25.23
2018-09-07T06:06:01.465Z,25.16
2018-09-07T06:07:01.494Z,25.26
2018-09-07T06:08:01.571Z,25.24
2018-09-07T06:09:01.601Z,25.22
2018-09-07T06:10:01.585Z,25.22
2018-09-07T06:11:01.918Z,25.26
2018-09-07T06:12:01.651Z,25.26
2018-09-07T06:13:01.730Z,25.20
2018-09-07T06:14:01.784Z,25.22
2018-09-07T06:15:01.801Z,25.30
2018-09-07T06:16:01.843Z,25.39
2018-09-07T06:17:01.810Z,25.30
2018-09-07T06:18:01.860Z,25.31
2018-09-07T06:19:01.880Z,25.34
2018-09-07T06:20:01.912Z,25.31
2018-09-07T06:21:01.997Z,25.44
2018-09-07T06:22:02.031Z,25.35
2018-09-07T06:23:02.011Z,25.39
2018-09-07T06:24:02.344Z,25.39
2018-09-07T06:25:02.122Z,25.39
2018-09-07T06:26:02.161Z,25.36
2018-09-07T06:27:02.189Z,25.41
2018-09-07T06:28:02.176Z,25.38
2018-09-07T06:29:02.206Z,25.36
2018-09-07T06:30:02.284Z,25.41
2018-09-07T06:31:02.565Z,25.44
2018-09-07T06:32:02.307Z,25.44
2018-09-07T06:33:02.401Z,25.45
2018-09-07T06:34:02.491Z,25.44
2018-09-07T06:35:02.444Z,25.46
2018-09-07T06:36:02.425Z,25.41
2018-09-07T06:37:02.555Z,25.44
2018-09-07T06:38:02.793Z,25.44
2018-09-07T06:39:02.633Z,25.51
2018-09-07T06:40:02.559Z,25.44
2018-09-07T06:41:02.585Z,25.51
2018-09-07T06:42:02.622Z,25.46
2018-09-07T06:43:02.656Z,25.48
2018-09-07T06:44:02.746Z,25.49
2018-09-07T06:45:03.018Z,25.48
2018-09-07T06:46:02.798Z,25.54
2018-09-07T06:47:02.884Z,25.54
2018-09-07T06:48:02.813Z,25.54
2018-09-07T06:49:02.845Z,25.51
2018-09-07T06:50:02.931Z,25.51
2018-09-07T06:51:02.912Z,25.53
2018-09-07T06:52:03.280Z,25.63
2018-09-07T06:53:02.975Z,25.56
2018-09-07T06:54:03.007Z,25.56
2018-09-07T06:55:03.044Z,25.59
2018-09-07T06:56:03.122Z,25.60
2018-09-07T06:57:03.105Z,25.60
2018-09-07T06:58:03.137Z,25.59
2018-09-07T06:59:03.469Z,25.60
2018-09-07T07:00:03.215Z,25.53
2018-09-07T07:01:03.291Z,25.64
2018-09-07T07:02:03.267Z,25.60
2018-09-07T07:03:03.298Z,25.61
2018-09-07T07:04:03.330Z,25.66
2018-09-07T07:05:03.361Z,25.67
2018-09-07T07:06:03.702Z,25.63
2018-09-07T07:07:03.428Z,25.69
2018-09-07T07:08:03.567Z,25.57
2018-09-07T07:09:03.545Z,25.63
2018-09-07T07:10:03.526Z,25.64
2018-09-07T07:11:03.559Z,25.69
2018-09-07T07:12:03.591Z,25.66
2018-09-07T07:13:03.924Z,25.69
2018-09-07T07:14:03.706Z,25.61
2018-09-07T07:15:03.689Z,25.69
2018-09-07T07:16:03.722Z,25.61
2018-09-07T07:17:03.753Z,25.76
2018-09-07T07:18:03.836Z,25.72
2018-09-07T07:19:04.121Z,25.64
2018-09-07T07:20:03.862Z,25.66
2018-09-07T07:21:03.933Z,25.64
2018-09-07T07:22:03.916Z,25.67
2018-09-07T07:23:03.981Z,25.61
2018-09-07T07:24:03.983Z,25.74
2018-09-07T07:25:04.312Z,25.76
2018-09-07T07:26:04.095Z,25.76
2018-09-07T07:27:04.083Z,25.78
2018-09-07T07:28:04.111Z,25.79
2018-09-07T07:29:04.234Z,25.79
2018-09-07T07:30:04.176Z,25.72
2018-09-07T07:31:04.518Z,25.82
2018-09-07T07:32:04.240Z,25.75
2018-09-07T07:33:04.334Z,25.76
2018-09-07T07:34:04.368Z,25.81
2018-09-07T07:35:04.343Z,25.83
2018-09-07T07:36:04.376Z,25.75
2018-09-07T07:37:04.444Z,25.76
2018-09-07T07:38:04.738Z,25.82
2018-09-07T07:39:04.472Z,25.75
2018-09-07T07:40:04.502Z,25.82
2018-09-07T07:41:04.582Z,25.89
2018-09-07T07:42:04.566Z,25.90
2018-09-07T07:43:04.600Z,25.85
2018-09-07T07:44:04.681Z,25.83
2018-09-07T07:45:04.970Z,25.85
2018-09-07T07:46:04.697Z,25.76
2018-09-07T07:47:04.735Z,25.81
2018-09-07T07:48:04.943Z,25.85
2018-09-07T07:49:04.845Z,25.82
2018-09-07T07:50:04.881Z,25.83
2018-09-07T07:51:04.860Z,25.76
2018-09-07T07:52:05.193Z,25.90
2018-09-07T07:53:04.928Z,25.81
2018-09-07T07:54:04.959Z,25.82
2018-09-07T07:55:04.993Z,25.83
2018-09-07T07:56:05.074Z,25.91
2018-09-07T07:57:05.054Z,25.90
2018-09-07T07:58:05.093Z,25.91
2018-09-07T07:59:05.171Z,25.91
2018-09-07T08:00:05.157Z,25.96
2018-09-07T08:01:05.186Z,25.93
2018-09-07T08:02:05.224Z,25.97
2018-09-07T08:03:05.254Z,25.96
2018-09-07T08:04:05.342Z,25.91
2018-09-07T08:05:05.318Z,25.82
2018-09-07T08:06:05.430Z,25.81
2018-09-07T08:07:05.383Z,25.94
2018-09-07T08:08:05.415Z,25.96
2018-09-07T08:09:05.499Z,25.91
2018-09-07T08:10:05.498Z,25.94
2018-09-07T08:11:05.814Z,25.96
2018-09-07T08:12:05.553Z,25.93
2018-09-07T08:13:05.632Z,25.96
2018-09-07T08:14:05.618Z,25.82
2018-09-07T08:15:05.698Z,25.96
2018-09-07T08:16:05.765Z,25.89
2018-09-07T08:17:06.012Z,25.93
2018-09-07T08:18:05.797Z,25.93
2018-09-07T08:19:05.793Z,25.93
2018-09-07T08:21:05.840Z,25.94
2018-09-07T08:22:05.875Z,25.91
2018-09-07T08:23:05.908Z,25.93
2018-09-07T08:24:05.988Z,25.97
2018-09-07T08:25:05.971Z,25.85
2018-09-07T08:26:06.003Z,25.85
2018-09-07T08:27:06.150Z,25.93
2018-09-07T08:28:06.069Z,25.83
2018-09-07T08:29:06.467Z,25.93
2018-09-07T08:31:06.208Z,25.96
2018-09-07T08:32:06.215Z,25.98
2018-09-07T08:33:06.430Z,25.93
2018-09-07T08:34:06.318Z,26.00
2018-09-07T08:35:06.372Z,25.98
2018-09-07T08:36:06.648Z,25.97
2018-09-07T08:37:06.426Z,25.90
2018-09-07T08:38:06.450Z,25.78
2018-09-07T08:39:06.491Z,25.72
2018-09-07T08:40:06.582Z,25.75
2018-09-07T08:41:06.545Z,25.69
2018-09-07T08:42:06.558Z,25.67
2018-09-07T08:43:06.621Z,25.67
2018-09-07T08:44:06.673Z,25.69
2018-09-07T08:45:06.634Z,25.57
2018-09-07T08:46:06.720Z,25.59
2018-09-07T08:47:06.730Z,25.54
2018-09-07T08:48:06.732Z,25.51
2018-09-07T08:49:07.060Z,25.46
2018-09-07T08:50:06.791Z,25.42
2018-09-07T08:51:06.889Z,25.42
2018-09-07T08:52:06.933Z,25.30
2018-09-07T08:53:06.898Z,25.20
2018-09-07T08:54:06.936Z,25.23
2018-09-07T08:55:07.138Z,25.26
2018-09-07T08:56:07.342Z,25.31
2018-09-07T08:57:07.023Z,25.31
2018-09-07T08:58:07.053Z,25.36
2018-09-07T08:59:07.163Z,25.36
2018-09-07T09:00:07.185Z,25.36
2018-09-07T09:01:07.201Z,25.45
2018-09-07T09:02:07.191Z,25.48
2018-09-07T09:03:07.539Z,25.44
2018-09-07T09:04:07.321Z,25.48
2018-09-07T09:05:07.352Z,25.59
2018-09-07T09:06:07.342Z,25.51
2018-09-07T09:08:07.445Z,25.59
2018-09-07T09:09:07.463Z,25.64
2018-09-07T09:10:07.514Z,25.57
2018-09-07T09:11:07.557Z,25.64
2018-09-07T09:12:07.586Z,25.63
2018-09-07T09:13:07.546Z,25.69
2018-09-07T09:14:07.582Z,25.74
2018-09-07T09:15:07.669Z,25.66
2018-09-07T09:16:07.953Z,25.72
2018-09-07T09:17:07.734Z,25.69
2018-09-07T09:18:07.812Z,25.79
2018-09-07T09:19:07.793Z,25.76
2018-09-07T09:20:07.781Z,25.79
2018-09-07T09:21:07.811Z,25.78
2018-09-07T09:22:08.237Z,25.75
2018-09-07T09:23:07.931Z,25.79
2018-09-07T09:24:08.027Z,25.78
2018-09-07T09:25:07.938Z,25.74
2018-09-07T09:26:07.971Z,25.78
2018-09-07T09:27:08.005Z,25.81
2018-09-07T09:28:08.339Z,25.78
2018-09-07T09:29:08.119Z,25.82
2018-09-07T09:30:08.105Z,25.86
2018-09-07T09:31:08.186Z,25.79
2018-09-07T09:32:08.167Z,25.90
2018-09-07T09:33:08.202Z,25.96
2018-09-07T09:34:08.283Z,25.89
2018-09-07T09:35:08.267Z,25.93
2018-09-07T09:36:08.300Z,25.91
2018-09-07T09:37:08.342Z,25.94
2018-09-07T09:38:08.365Z,25.93
2018-09-07T09:39:08.398Z,25.93
2018-09-07T09:40:08.436Z,25.94
2018-09-07T09:41:08.814Z,25.98
2018-09-07T09:42:08.499Z,25.97
2018-09-07T09:43:08.529Z,25.93
2018-09-07T09:44:08.564Z,26.03
2018-09-07T09:45:08.599Z,25.98
2018-09-07T09:46:08.682Z,26.00
2018-09-07T09:47:08.688Z,26.01
2018-09-07T09:48:08.992Z,26.04
2018-09-07T09:49:08.780Z,25.97
2018-09-07T09:50:08.813Z,26.06
2018-09-07T09:51:08.793Z,26.04
2018-09-07T09:52:08.823Z,26.12
2018-09-07T09:53:08.931Z,26.03
2018-09-07T09:54:08.889Z,26.11
2018-09-07T09:55:09.225Z,26.12
2018-09-07T09:56:09.004Z,26.19
2018-09-07T09:57:09.041Z,26.20
2018-09-07T09:58:09.023Z,26.20
2018-09-07T09:59:09.073Z,26.27
2018-09-07T10:00:09.100Z,26.24
2018-09-07T10:01:09.172Z,26.28
2018-09-07T10:02:09.151Z,26.24
2018-09-07T10:03:09.238Z,26.24
2018-09-07T10:04:09.269Z,26.27
2018-09-07T10:05:09.255Z,26.24
2018-09-07T10:06:09.337Z,26.32
2018-09-07T10:07:09.326Z,26.21
2018-09-07T10:08:09.653Z,26.31
2018-09-07T10:09:09.440Z,26.34
2018-09-07T10:10:09.468Z,26.32
2018-09-07T10:11:09.451Z,26.28
2018-09-07T10:12:09.585Z,26.38
2018-09-07T10:13:09.525Z,26.36
2018-09-07T10:14:09.603Z,26.41
2018-09-07T10:15:09.787Z,26.31
2018-09-07T10:16:09.626Z,26.44
2018-09-07T10:17:09.698Z,26.39
2018-09-07T10:18:09.682Z,26.49
2018-09-07T10:19:09.830Z,26.42
2018-09-07T10:20:09.750Z,26.42
2018-09-07T10:21:10.095Z,26.47
2018-09-07T10:22:09.815Z,26.47
2018-09-07T10:23:09.878Z,26.53
2018-09-07T10:24:09.887Z,26.57
2018-09-07T10:25:09.913Z,26.44
2018-09-07T10:26:10.000Z,26.47
2018-09-07T10:27:10.338Z,26.49
2018-09-07T10:28:10.066Z,26.41
2018-09-07T10:31:10.113Z,26.21
2018-09-07T10:32:10.153Z,26.06
2018-09-07T10:33:10.480Z,26.00
2018-09-07T10:34:10.213Z,25.97
2018-09-07T10:35:10.298Z,25.76
2018-09-07T10:36:10.311Z,25.69
2018-09-07T10:37:10.310Z,25.53
2018-09-07T10:38:10.408Z,25.45
2018-09-07T10:39:10.381Z,25.36
2018-09-07T10:40:10.710Z,25.26
2018-09-07T10:41:10.493Z,25.22
2018-09-07T10:42:10.479Z,25.05
2018-09-07T10:43:10.509Z,24.99
2018-09-07T10:44:10.558Z,24.97
2018-09-07T10:45:10.629Z,24.87
2018-09-07T10:46:10.772Z,24.87
2018-09-07T10:47:10.942Z,24.80
2018-09-07T10:48:10.682Z,24.82
2018-09-07T10:49:10.710Z,24.82
2018-09-07T10:50:10.746Z,24.75
2018-09-07T10:51:10.772Z,24.71
2018-09-07T10:52:10.940Z,24.71
2018-09-07T10:53:10.949Z,24.61
2018-09-07T10:54:11.182Z,24.59
2018-09-07T10:55:10.920Z,24.64
2018-09-07T10:56:10.947Z,24.55
2018-09-07T10:57:10.976Z,24.60
2018-09-07T10:58:11.005Z,24.56
2018-09-07T10:59:11.118Z,24.63
2018-09-07T11:00:11.120Z,24.68
2018-09-07T11:01:11.405Z,24.71
2018-09-07T11:02:11.138Z,24.75
2018-09-07T11:03:11.169Z,24.75
2018-09-07T11:04:11.200Z,24.75
2018-09-07T11:05:11.285Z,24.70
2018-09-07T11:06:11.266Z,24.71
2018-09-07T11:07:11.303Z,24.74
2018-09-07T11:08:11.648Z,24.71
2018-09-07T11:09:11.376Z,24.75
2018-09-07T11:10:11.457Z,24.74
2018-09-07T11:12:11.469Z,24.74
2018-09-07T11:13:11.497Z,24.71
2018-09-07T11:14:11.530Z,24.70
2018-09-07T11:15:11.866Z,24.70
2018-09-07T11:16:11.595Z,24.70
2018-09-07T11:17:11.724Z,24.68
2018-09-07T11:18:11.674Z,24.59
2018-09-07T11:19:11.695Z,24.63
2018-09-07T11:20:11.781Z,24.61
2018-09-07T11:21:11.763Z,24.51
2018-09-07T11:22:12.094Z,24.46
2018-09-07T11:23:11.828Z,24.39
2018-09-07T11:24:11.898Z,24.42
2018-09-07T11:25:11.943Z,24.45
2018-09-07T11:26:11.929Z,24.30
2018-09-07T11:27:12.036Z,24.30
2018-09-07T11:28:12.041Z,24.33
2018-09-07T11:29:12.344Z,24.23
2018-09-07T11:30:12.110Z,24.23
2018-09-07T11:31:12.095Z,24.19
2018-09-07T11:32:12.121Z,24.19
2018-09-07T11:33:12.209Z,24.19
2018-09-07T11:34:12.188Z,24.30
2018-09-07T11:35:12.220Z,24.27
2018-09-07T11:36:12.556Z,24.19
2018-09-07T11:37:12.287Z,24.26
2018-09-07T11:38:12.388Z,24.23
2018-09-07T11:39:12.404Z,24.19
2018-09-07T11:40:12.392Z,24.14
2018-09-07T11:41:12.509Z,24.23
2018-09-07T11:42:12.450Z,24.15
2018-09-07T11:43:12.489Z,24.12
2018-09-07T11:44:12.527Z,24.11
2018-09-07T11:45:12.605Z,24.12
2018-09-07T11:46:12.582Z,24.16
2018-09-07T11:47:12.670Z,24.05
2018-09-07T11:48:12.716Z,24.08
2018-09-07T11:49:12.693Z,24.08
2018-09-07T11:50:12.812Z,24.08
2018-09-07T11:51:12.797Z,24.04
2018-09-07T11:52:12.776Z,24.02
2018-09-07T11:53:12.863Z,23.97
2018-09-07T11:54:12.843Z,23.89
2018-09-07T11:55:13.180Z,23.82
2018-09-07T11:56:12.907Z,23.93
2018-09-07T11:57:12.965Z,23.84
2018-09-07T11:58:13.175Z,23.87
2018-09-07T11:59:13.015Z,23.87
2018-09-07T12:00:13.040Z,23.94
2018-09-07T12:01:13.425Z,23.93
2018-09-07T12:02:13.176Z,23.92
2018-09-07T12:03:13.135Z,23.87
2018-09-07T12:04:13.204Z,23.87
2018-09-07T12:05:13.202Z,23.82
2018-09-07T12:06:13.284Z,23.75
2018-09-07T12:07:13.321Z,23.86
2018-09-07T12:08:13.298Z,23.78
2018-09-07T12:09:13.336Z,23.78
2018-09-07T12:10:13.414Z,23.72
2018-09-07T12:11:13.400Z,23.78
2018-09-07T12:12:13.439Z,23.77
2018-09-07T12:13:13.977Z,23.81
2018-09-07T12:14:13.496Z,23.89
2018-09-07T12:15:13.530Z,23.82
2018-09-07T12:16:13.561Z,23.87
2018-09-07T12:17:13.658Z,23.84
2018-09-07T12:18:13.628Z,23.94
2018-09-07T12:19:13.662Z,23.92
2018-09-07T12:20:13.694Z,24.05
2018-09-07T12:21:13.779Z,24.04
2018-09-07T12:22:13.756Z,24.06
2018-09-07T12:23:13.842Z,24.12
2018-09-07T12:24:13.822Z,24.05
2018-09-07T12:25:13.855Z,24.15
2018-09-07T12:26:13.888Z,24.18
2018-09-07T12:27:13.972Z,24.19
2018-09-07T12:28:14.144Z,24.21
2018-09-07T12:29:13.994Z,24.21
2018-09-07T12:30:14.071Z,24.18
2018-09-07T12:31:14.057Z,24.24
2018-09-07T12:33:14.425Z,24.27
2018-09-07T12:34:14.198Z,24.23
2018-09-07T12:35:14.187Z,24.26
2018-09-07T12:36:14.265Z,24.29
2018-09-07T12:37:14.249Z,24.30
2018-09-07T12:38:14.346Z,24.34
2018-09-07T12:39:14.618Z,24.37
2018-09-07T12:40:14.344Z,24.33
2018-09-07T12:41:14.477Z,24.37
2018-09-07T12:42:14.416Z,24.37
2018-09-07T12:43:14.445Z,24.44
2018-09-07T12:44:14.527Z,24.41
2018-09-07T12:45:14.808Z,24.37
2018-09-07T12:46:14.590Z,24.42
2018-09-07T12:47:14.576Z,24.42
2018-09-07T12:48:14.606Z,24.42
2018-09-07T12:49:14.636Z,24.44
2018-09-07T12:50:14.727Z,24.45
2018-09-07T12:51:15.007Z,24.44
2018-09-07T12:52:14.737Z,24.49
2018-09-07T12:53:14.772Z,24.60
2018-09-07T12:54:14.803Z,24.59
2018-09-07T12:55:14.888Z,24.70
2018-09-07T12:56:14.971Z,24.75
2018-09-07T12:57:14.951Z,24.89
2018-09-07T12:58:14.938Z,24.83
2018-09-07T12:59:15.029Z,24.87
2018-09-07T13:00:14.998Z,24.97
2018-09-07T13:01:15.105Z,24.93
2018-09-07T13:02:15.126Z,25.02
2018-09-07T13:03:15.100Z,25.09
2018-09-07T13:04:15.131Z,25.07
2018-09-07T13:05:15.215Z,25.12
2018-09-07T13:06:15.210Z,25.09
2018-09-07T13:07:15.284Z,25.14
2018-09-07T13:08:15.383Z,25.19
2018-09-07T13:09:15.505Z,25.23
2018-09-07T13:10:15.817Z,25.24
2018-09-07T13:11:15.415Z,25.38